createdAt,value
2024-01-14T00:00:34.983Z,56.47
2024-01-14T00:03:02.955Z,56.63
2024-01-14T00:05:30.967Z,56.58
2024-01-14T00:07:58.512Z,56.70
2024-01-14T00:10:26.028Z,56.64
2024-01-14T00:12:53.535Z,56.65
2024-01-14T00:15:21.527Z,56.74
2024-01-14T00:17:49.202Z,56.91
2024-01-14T00:20:17.243Z,56.89
2024-01-14T00:22:44.953Z,56.81
2024-01-14T00:25:13.466Z,56.61
2024-01-14T00:27:41.216Z,56.48
2024-01-14T00:30:09.354Z,56.45
2024-01-14T00:32:37.069Z,56.49
2024-01-14T00:35:06.073Z,56.50
2024-01-14T00:37:33.625Z,56.40
2024-01-14T00:40:01.031Z,56.37
2024-01-14T00:42:28.773Z,56.25
2024-01-14T00:44:56.410Z,56.04
2024-01-14T00:47:24.154Z,55.73
2024-01-14T00:49:51.778Z,55.65
2024-01-14T00:52:19.387Z,55.59
2024-01-14T00:54:47.037Z,55.55
2024-01-14T00:57:14.593Z,55.53
2024-01-14T00:59:42.468Z,55.71
2024-01-14T01:02:09.965Z,55.91
2024-01-14T01:04:37.647Z,56.01
2024-01-14T01:07:05.263Z,56.10
2024-01-14T01:09:32.864Z,56.29
2024-01-14T01:12:00.542Z,56.07
2024-01-14T01:14:28.571Z,56.44
2024-01-14T01:16:56.131Z,56.38
2024-01-14T01:19:24.358Z,56.24
2024-01-14T01:21:52.925Z,56.19
2024-01-14T01:24:20.562Z,56.26
2024-01-14T01:26:48.334Z,56.24
2024-01-14T01:29:15.866Z,56.18
2024-01-14T01:31:47.768Z,56.14
2024-01-14T01:34:19.119Z,56.18
2024-01-14T01:36:46.741Z,56.29
2024-01-14T01:39:15.749Z,56.39
2024-01-14T01:41:43.406Z,56.42
2024-01-14T01:44:11.006Z,56.71
2024-01-14T01:46:38.623Z,56.85
2024-01-14T01:49:06.351Z,56.82
2024-01-14T01:51:33.907Z,56.87
2024-01-14T01:54:01.453Z,56.80
2024-01-14T01:56:29.017Z,56.78
2024-01-14T01:58:56.637Z,56.82
2024-01-14T02:01:24.248Z,56.67
2024-01-14T02:03:52.453Z,56.44
2024-01-14T02:06:20.073Z,56.41
2024-01-14T02:08:48.572Z,56.32
2024-01-14T02:11:16.384Z,56.33
2024-01-14T02:13:43.927Z,56.20
2024-01-14T02:16:11.936Z,56.08
2024-01-14T02:18:39.661Z,56.23
2024-01-14T02:21:07.666Z,56.05
2024-01-14T02:23:36.891Z,56.16
2024-01-14T02:26:04.576Z,56.18
2024-01-14T02:28:32.683Z,56.27
2024-01-14T02:31:00.906Z,56.37
2024-01-14T02:33:28.817Z,56.54
2024-01-14T02:35:56.708Z,56.64
2024-01-14T02:38:24.200Z,56.57
2024-01-14T02:40:52.167Z,57.09
2024-01-14T02:43:19.729Z,57.22
2024-01-14T02:45:47.305Z,57.10
2024-01-14T02:48:15.139Z,57.10
2024-01-14T02:50:43.042Z,57.31
2024-01-14T02:53:10.589Z,57.34
2024-01-14T02:55:38.066Z,57.61
2024-01-14T02:58:05.648Z,57.72
2024-01-14T03:00:33.231Z,57.97
2024-01-14T03:03:00.967Z,58.15
2024-01-14T03:05:28.663Z,58.17
2024-01-14T03:07:56.289Z,58.31
2024-01-14T03:10:25.089Z,58.20
2024-01-14T03:12:52.634Z,58.32
2024-01-14T03:15:20.290Z,58.38
2024-01-14T03:17:48.165Z,58.35
2024-01-14T03:20:15.931Z,58.43
2024-01-14T03:22:43.922Z,58.61
2024-01-14T03:25:11.622Z,58.61
2024-01-14T03:27:39.187Z,58.53
2024-01-14T03:30:07.644Z,58.48
2024-01-14T03:32:35.385Z,58.54
2024-01-14T03:35:03.125Z,58.35
2024-01-14T03:37:30.690Z,58.50
2024-01-14T03:39:58.860Z,58.57
2024-01-14T03:42:26.447Z,58.75
2024-01-14T03:44:54.237Z,58.84
2024-01-14T03:47:21.928Z,58.87
2024-01-14T03:49:49.813Z,58.99
2024-01-14T03:52:17.788Z,58.94
2024-01-14T03:54:45.350Z,58.97
2024-01-14T03:57:12.821Z,58.64
2024-01-14T03:59:40.351Z,58.48
2024-01-14T04:02:07.890Z,58.62
2024-01-14T04:04:35.593Z,58.74
2024-01-14T04:07:03.491Z,58.66
2024-01-14T04:09:31.256Z,58.56
2024-01-14T04:11:58.947Z,58.64
2024-01-14T04:14:26.624Z,58.69
2024-01-14T04:16:54.286Z,58.72
2024-01-14T04:19:21.870Z,58.76
2024-01-14T04:21:50.442Z,58.76
2024-01-14T04:24:18.129Z,58.71
2024-01-14T04:26:45.749Z,58.79
2024-01-14T04:29:13.310Z,58.73
2024-01-14T04:31:40.959Z,58.66
2024-01-14T04:34:09.103Z,58.84
2024-01-14T04:36:36.860Z,58.94
2024-01-14T04:39:04.623Z,58.89
2024-01-14T04:41:32.241Z,59.05
2024-01-14T04:43:59.800Z,59.16
2024-01-14T04:46:27.771Z,59.27
2024-01-14T04:48:56.288Z,59.46
2024-01-14T04:51:24.071Z,59.66
2024-01-14T04:53:51.713Z,59.60
2024-01-14T04:56:19.340Z,59.47
2024-01-14T04:58:46.905Z,59.46
2024-01-14T05:01:14.480Z,59.40
2024-01-14T05:03:42.148Z,59.48
2024-01-14T05:06:09.956Z,59.63
2024-01-14T05:08:39.438Z,59.62
2024-01-14T05:11:07.062Z,59.76
2024-01-14T05:13:35.338Z,59.83
2024-01-14T05:16:03.007Z,59.89
2024-01-14T05:18:30.861Z,59.92
2024-01-14T05:20:58.716Z,59.96
2024-01-14T05:23:26.286Z,60.19
2024-01-14T05:25:53.899Z,60.32
2024-01-14T05:28:21.457Z,60.52
2024-01-14T05:30:49.384Z,60.68
2024-01-14T05:33:17.125Z,60.78
2024-01-14T05:35:44.702Z,60.81
2024-01-14T05:38:12.260Z,60.98
2024-01-14T05:40:40.547Z,61.04
2024-01-14T05:43:08.102Z,60.85
2024-01-14T05:45:36.249Z,60.89
2024-01-14T05:48:04.396Z,60.90
2024-01-14T05:50:32.011Z,61.15
2024-01-14T05:52:59.563Z,61.17
2024-01-14T05:55:27.021Z,61.15
2024-01-14T05:57:54.589Z,61.25
2024-01-14T06:00:24.433Z,61.40
2024-01-14T06:02:52.116Z,61.31
2024-01-14T06:05:23.937Z,61.47
2024-01-14T06:07:53.862Z,61.51
2024-01-14T06:10:21.401Z,61.59
2024-01-14T06:12:49.060Z,61.65
2024-01-14T06:15:17.005Z,61.47
2024-01-14T06:17:44.761Z,61.38
2024-01-14T06:20:12.756Z,61.26
2024-01-14T06:22:40.316Z,61.14
2024-01-14T06:25:09.117Z,61.25
2024-01-14T06:27:36.683Z,61.25
2024-01-14T06:30:05.000Z,61.31
2024-01-14T06:32:32.985Z,61.14
2024-01-14T06:35:01.368Z,61.09
2024-01-14T06:37:29.268Z,61.12
2024-01-14T06:39:56.872Z,61.17
2024-01-14T06:42:24.805Z,61.31
2024-01-14T06:44:52.291Z,61.31
2024-01-14T06:47:19.809Z,61.37
2024-01-14T06:49:53.427Z,61.42
2024-01-14T06:52:26.495Z,61.41
2024-01-14T06:54:53.951Z,61.37
2024-01-14T06:57:21.412Z,61.28
2024-01-14T06:59:49.183Z,61.25
2024-01-14T07:02:16.656Z,61.23
2024-01-14T07:04:44.205Z,61.06
2024-01-14T07:07:12.033Z,61.19
2024-01-14T07:09:39.449Z,61.28
2024-01-14T07:12:07.537Z,61.29
2024-01-14T07:14:35.061Z,61.14
2024-01-14T07:17:02.448Z,61.14
2024-01-14T07:19:30.154Z,61.16
2024-01-14T07:21:57.826Z,61.19
2024-01-14T07:24:25.330Z,61.30
2024-01-14T07:26:52.908Z,61.33
2024-01-14T07:29:20.407Z,61.33
2024-01-14T07:31:47.982Z,61.36
2024-01-14T07:34:15.753Z,61.39
2024-01-14T07:36:43.519Z,61.59
2024-01-14T07:39:11.323Z,61.69
2024-01-14T07:41:40.255Z,61.87
2024-01-14T07:44:10.445Z,61.80
2024-01-14T07:46:37.943Z,61.79
2024-01-14T07:49:05.615Z,61.79
2024-01-14T07:51:34.827Z,61.87
2024-01-14T07:54:02.525Z,61.82
2024-01-14T07:56:30.019Z,61.86
2024-01-14T07:58:57.649Z,61.85
2024-01-14T08:01:25.327Z,61.76
2024-01-14T08:03:53.104Z,61.93
2024-01-14T08:06:22.981Z,62.01
2024-01-14T08:08:50.477Z,62.09
2024-01-14T08:11:18.464Z,62.12
2024-01-14T08:13:46.031Z,62.06
2024-01-14T08:16:14.756Z,62.07
2024-01-14T08:18:42.638Z,61.95
2024-01-14T08:21:10.860Z,61.92
2024-01-14T08:23:38.847Z,61.96
2024-01-14T08:26:07.404Z,61.86
2024-01-14T08:28:36.421Z,62.04
2024-01-14T08:31:04.277Z,62.20
2024-01-14T08:33:32.152Z,62.18
2024-01-14T08:36:00.640Z,62.34
2024-01-14T08:38:28.267Z,62.17
2024-01-14T08:40:55.771Z,61.97
2024-01-14T08:43:23.382Z,61.93
2024-01-14T08:45:50.877Z,61.70
2024-01-14T08:48:18.829Z,61.46
2024-01-14T08:50:46.693Z,61.38
2024-01-14T08:53:15.050Z,61.30
2024-01-14T08:55:43.053Z,60.93
2024-01-14T08:58:10.693Z,60.58
2024-01-14T09:00:38.431Z,60.21
2024-01-14T09:03:06.204Z,59.95
2024-01-14T09:05:34.022Z,59.58
2024-01-14T09:08:01.642Z,59.49
2024-01-14T09:10:29.408Z,59.13
2024-01-14T09:12:56.943Z,58.90
2024-01-14T09:15:24.553Z,58.23
2024-01-14T09:17:53.093Z,57.94
2024-01-14T09:20:21.191Z,57.97
2024-01-14T09:22:48.861Z,57.75
2024-01-14T09:25:16.766Z,57.22
2024-01-14T09:27:44.769Z,56.84
2024-01-14T09:30:14.261Z,56.79
2024-01-14T09:32:41.843Z,56.67
2024-01-14T09:35:10.327Z,57.00
2024-01-14T09:37:38.106Z,56.98
2024-01-14T09:40:07.379Z,57.03
2024-01-14T09:42:36.183Z,57.15
2024-01-14T09:47:45.780Z,57.79
2024-01-14T09:50:13.726Z,56.74
2024-01-14T09:52:41.985Z,56.54
2024-01-14T09:55:10.434Z,56.38
2024-01-14T09:57:38.123Z,56.45
2024-01-14T10:00:06.895Z,56.46
2024-01-14T10:02:35.341Z,56.54
2024-01-14T10:05:02.984Z,56.51
2024-01-14T10:07:30.717Z,56.27
2024-01-14T10:09:58.914Z,56.21
2024-01-14T10:12:27.087Z,55.99
2024-01-14T10:14:59.267Z,55.98
2024-01-14T10:17:27.788Z,55.57
2024-01-14T10:19:55.957Z,55.25
2024-01-14T10:22:23.868Z,55.08
2024-01-14T10:24:53.490Z,55.21
2024-01-14T10:27:34.880Z,55.08
2024-01-14T10:30:14.845Z,55.03
2024-01-14T10:33:16.919Z,54.89
2024-01-14T10:35:31.947Z,54.90
2024-01-14T10:38:00.445Z,55.01
2024-01-14T10:40:28.320Z,54.99
2024-01-14T10:42:56.102Z,54.91
2024-01-14T10:45:23.891Z,54.96
2024-01-14T10:47:55.533Z,54.95
2024-01-14T10:50:23.908Z,54.75
2024-01-14T10:52:57.318Z,54.74
2024-01-14T10:55:41.944Z,54.95
2024-01-14T10:58:09.493Z,55.07
2024-01-14T11:00:37.261Z,55.31
2024-01-14T11:03:07.157Z,55.59
2024-01-14T11:05:35.381Z,55.99
2024-01-14T11:08:05.064Z,56.41
2024-01-14T11:10:32.776Z,56.92
2024-01-14T11:13:07.197Z,57.47
2024-01-14T11:15:41.278Z,57.78
2024-01-14T11:18:15.717Z,57.95
2024-01-14T11:20:55.544Z,57.86
2024-01-14T11:23:34.788Z,57.83
2024-01-14T11:26:02.724Z,57.83
2024-01-14T11:28:30.219Z,57.45
2024-01-14T11:31:00.906Z,57.35
2024-01-14T11:33:43.571Z,57.06
2024-01-14T11:36:11.535Z,56.96
2024-01-14T11:38:45.217Z,56.70
2024-01-14T11:41:37.520Z,56.62
2024-01-14T11:44:06.333Z,56.80
2024-01-14T11:46:40.605Z,56.66
2024-01-14T11:49:16.843Z,56.65
2024-01-14T11:52:00.697Z,56.62
2024-01-14T11:54:28.712Z,56.74
2024-01-14T11:56:56.663Z,57.07
2024-01-14T12:01:54.876Z,57.32
2024-01-14T12:04:24.959Z,57.62
2024-01-14T12:06:52.686Z,57.79
2024-01-14T12:09:20.359Z,58.05
2024-01-14T12:11:47.884Z,58.15
2024-01-14T12:14:15.442Z,58.44
2024-01-14T12:16:43.730Z,58.26
2024-01-14T12:19:19.641Z,58.04
2024-01-14T12:21:47.482Z,58.01
2024-01-14T12:24:15.122Z,57.68
2024-01-14T12:26:49.013Z,57.70
2024-01-14T12:29:16.681Z,57.92
2024-01-14T12:31:50.232Z,58.07
2024-01-14T12:34:24.998Z,58.61
2024-01-14T12:36:54.577Z,58.95
2024-01-14T12:39:23.183Z,59.15
2024-01-14T12:41:54.647Z,59.30
2024-01-14T12:44:23.796Z,59.06
2024-01-14T12:46:56.282Z,58.84
2024-01-14T12:49:26.515Z,58.69
2024-01-14T12:52:05.715Z,58.68
2024-01-14T12:54:33.756Z,58.76
2024-01-14T12:57:16.314Z,58.72
2024-01-14T12:59:48.121Z,58.55
2024-01-14T13:02:16.092Z,58.86
2024-01-14T13:04:44.392Z,58.91
2024-01-14T13:07:13.474Z,58.84
2024-01-14T13:09:42.390Z,58.75
2024-01-14T13:12:10.188Z,58.83
2024-01-14T13:14:37.722Z,58.83
2024-01-14T13:17:05.460Z,58.91
2024-01-14T13:19:33.185Z,58.90
2024-01-14T13:22:00.865Z,58.71
2024-01-14T13:24:30.633Z,58.56
2024-01-14T13:26:59.469Z,58.36
2024-01-14T13:29:27.237Z,58.20
2024-01-14T13:31:54.936Z,58.28
2024-01-14T13:34:23.396Z,58.40
2024-01-14T13:36:51.413Z,58.52
2024-01-14T13:39:19.167Z,58.52
2024-01-14T13:41:46.977Z,58.54
2024-01-14T13:44:17.975Z,58.54
2024-01-14T13:46:48.223Z,58.83
2024-01-14T13:49:17.339Z,59.17
2024-01-14T13:51:46.183Z,59.44
2024-01-14T13:54:15.199Z,59.57
2024-01-14T13:56:44.427Z,59.79
2024-01-14T13:59:12.515Z,60.05
2024-01-14T14:01:40.968Z,60.15
2024-01-14T14:04:12.297Z,60.15
2024-01-14T14:06:41.001Z,60.39
2024-01-14T14:09:09.878Z,60.84
2024-01-14T14:11:41.145Z,60.94
2024-01-14T14:14:08.757Z,60.97
2024-01-14T14:16:41.511Z,60.80
2024-01-14T14:19:13.060Z,60.67
2024-01-14T14:21:54.339Z,60.77
2024-01-14T14:24:33.253Z,60.78
2024-01-14T14:27:02.013Z,60.76
2024-01-14T14:29:29.926Z,60.62
2024-01-14T14:31:58.185Z,60.55
2024-01-14T14:34:27.001Z,60.41
2024-01-14T14:36:55.554Z,60.42
2024-01-14T14:39:23.536Z,60.43
2024-01-14T14:41:51.294Z,60.43
2024-01-14T14:44:19.162Z,60.64
2024-01-14T14:46:46.852Z,60.74
2024-01-14T14:49:14.878Z,60.87
2024-01-14T14:51:42.852Z,60.76
2024-01-14T14:54:11.870Z,60.86
2024-01-14T14:56:40.939Z,60.97
2024-01-14T14:59:10.217Z,60.87
2024-01-14T15:01:43.154Z,60.82
2024-01-14T15:04:14.766Z,60.94
2024-01-14T15:06:44.914Z,61.00
2024-01-14T15:09:13.238Z,61.13
2024-01-14T15:11:42.488Z,61.33
2024-01-14T15:14:10.755Z,61.33
2024-01-14T15:16:38.634Z,61.44
2024-01-14T15:19:06.985Z,61.67
2024-01-14T15:21:35.096Z,61.70
2024-01-14T15:24:03.314Z,61.54
2024-01-14T15:26:32.018Z,61.51
2024-01-14T15:28:59.656Z,61.51
2024-01-14T15:31:27.320Z,61.56
2024-01-14T15:33:55.373Z,61.75
2024-01-14T15:36:24.428Z,61.65
2024-01-14T15:38:52.435Z,61.83
2024-01-14T15:41:20.081Z,61.80
2024-01-14T15:43:48.658Z,61.90
2024-01-14T15:46:16.342Z,61.94
2024-01-14T15:48:44.068Z,61.71
2024-01-14T15:51:14.215Z,61.55
2024-01-14T15:53:43.565Z,61.48
2024-01-14T15:56:12.970Z,61.48
2024-01-14T15:58:42.324Z,61.56
2024-01-14T16:01:13.070Z,61.47
2024-01-14T16:03:44.705Z,61.32
2024-01-14T16:06:14.378Z,61.38
2024-01-14T16:08:44.465Z,61.48
2024-01-14T16:11:12.111Z,61.44
2024-01-14T16:13:39.962Z,61.34
2024-01-14T16:16:07.719Z,61.22
2024-01-14T16:18:36.390Z,61.26
2024-01-14T16:21:06.908Z,61.21
2024-01-14T16:23:40.465Z,61.35
2024-01-14T16:26:09.317Z,61.31
2024-01-14T16:28:37.618Z,61.29
2024-01-14T16:31:11.911Z,61.36
2024-01-14T16:33:48.113Z,61.40
2024-01-14T16:36:17.398Z,61.23
2024-01-14T16:38:46.466Z,61.08
2024-01-14T16:41:14.252Z,61.03
2024-01-14T16:43:42.829Z,60.85
2024-01-14T16:46:10.493Z,60.85
2024-01-14T16:48:38.312Z,60.81
2024-01-14T16:51:10.037Z,60.84
2024-01-14T16:53:41.249Z,60.77
2024-01-14T16:56:14.113Z,60.84
2024-01-14T16:58:43.828Z,60.74
2024-01-14T17:01:16.550Z,60.69
2024-01-14T17:03:48.417Z,60.62
2024-01-14T17:06:17.915Z,60.51
2024-01-14T17:08:47.504Z,60.51
2024-01-14T17:11:16.516Z,60.37
2024-01-14T17:13:44.611Z,60.36
2024-01-14T17:16:38.886Z,60.36
2024-01-14T17:19:07.712Z,60.34
2024-01-14T17:21:36.291Z,60.25
2024-01-14T17:24:04.818Z,60.17
2024-01-14T17:26:32.899Z,60.10
2024-01-14T17:29:00.413Z,59.86
2024-01-14T17:31:28.109Z,59.64
2024-01-14T17:33:56.569Z,59.46
2024-01-14T17:36:24.978Z,59.39
2024-01-14T17:38:53.017Z,59.45
2024-01-14T17:41:20.854Z,59.54
2024-01-14T17:43:48.856Z,59.46
2024-01-14T17:46:19.808Z,59.52
2024-01-14T17:48:50.087Z,59.43
2024-01-14T17:51:19.944Z,59.45
2024-01-14T17:53:48.035Z,59.47
2024-01-14T17:56:18.796Z,59.35
2024-01-14T17:58:46.641Z,59.21
2024-01-14T18:01:14.392Z,59.17
2024-01-14T18:03:42.768Z,58.94
2024-01-14T18:06:12.343Z,58.99
2024-01-14T18:08:40.529Z,59.08
2024-01-14T18:11:08.256Z,59.01
2024-01-14T18:13:36.912Z,59.04
2024-01-14T18:16:06.684Z,59.09
2024-01-14T18:18:34.652Z,59.04
2024-01-14T18:21:05.166Z,59.08
2024-01-14T18:23:32.984Z,59.13
2024-01-14T18:26:00.553Z,58.96
2024-01-14T18:28:28.344Z,58.86
2024-01-14T18:30:55.988Z,58.88
2024-01-14T18:33:23.865Z,58.83
2024-01-14T18:35:51.612Z,58.85
2024-01-14T18:38:19.278Z,58.83
2024-01-14T18:40:46.939Z,58.93
2024-01-14T18:43:14.795Z,59.07
2024-01-14T18:45:42.494Z,59.19
2024-01-14T18:48:10.386Z,59.15
2024-01-14T18:50:38.656Z,59.26
2024-01-14T18:53:08.288Z,59.21
2024-01-14T18:55:38.544Z,59.04
2024-01-14T18:58:07.651Z,58.98
2024-01-14T19:00:35.623Z,59.01
2024-01-14T19:03:03.802Z,59.11
2024-01-14T19:05:33.064Z,59.03
2024-01-14T19:08:00.962Z,59.04
2024-01-14T19:10:28.663Z,59.15
2024-01-14T19:12:59.237Z,59.10
2024-01-14T19:15:27.226Z,59.23
2024-01-14T19:17:54.959Z,59.23
2024-01-14T19:20:22.771Z,59.12
2024-01-14T19:22:50.354Z,58.93
2024-01-14T19:25:17.974Z,58.77
2024-01-14T19:27:45.867Z,58.74
2024-01-14T19:30:13.791Z,58.81
2024-01-14T19:32:41.502Z,58.83
2024-01-14T19:35:10.558Z,58.78
2024-01-14T19:37:38.226Z,58.85
2024-01-14T19:40:06.816Z,58.91
2024-01-14T19:42:34.516Z,58.99
2024-01-14T19:45:02.388Z,58.95
2024-01-14T19:47:31.331Z,58.82
2024-01-14T19:49:59.620Z,58.72
2024-01-14T19:52:27.160Z,58.73
2024-01-14T19:54:54.872Z,58.86
2024-01-14T19:57:22.621Z,59.03
2024-01-14T19:59:50.365Z,58.98
2024-01-14T20:02:18.014Z,59.01
2024-01-14T20:04:45.580Z,59.04
2024-01-14T20:07:13.239Z,59.16
2024-01-14T20:09:40.806Z,59.23
2024-01-14T20:12:08.886Z,59.13
2024-01-14T20:14:42.509Z,59.06
2024-01-14T20:17:12.183Z,59.02
2024-01-14T20:19:39.906Z,59.00
2024-01-14T20:22:07.664Z,59.08
2024-01-14T20:24:38.618Z,59.15
2024-01-14T20:27:07.870Z,59.16
2024-01-14T20:29:35.826Z,59.09
2024-01-14T20:32:03.586Z,59.19
2024-01-14T20:34:31.376Z,59.22
2024-01-14T20:36:59.133Z,59.41
2024-01-14T20:39:27.504Z,59.27
2024-01-14T20:41:55.064Z,59.13
2024-01-14T20:44:22.697Z,59.22
2024-01-14T20:46:50.423Z,59.17
2024-01-14T20:49:18.160Z,59.23
2024-01-14T20:51:46.176Z,59.27
2024-01-14T20:54:13.988Z,59.22
2024-01-14T20:56:41.740Z,59.15
2024-01-14T20:59:09.393Z,59.25
2024-01-14T21:01:37.212Z,59.42
2024-01-14T21:04:06.067Z,59.34
2024-01-14T21:06:33.945Z,59.21
2024-01-14T21:09:01.742Z,59.20
2024-01-14T21:11:29.553Z,59.18
2024-01-14T21:13:57.115Z,59.19
2024-01-14T21:16:24.776Z,59.28
2024-01-14T21:18:52.451Z,59.31
2024-01-14T21:21:25.697Z,59.22
2024-01-14T21:23:53.509Z,59.33
2024-01-14T21:26:21.372Z,59.31
2024-01-14T21:28:51.204Z,59.32
2024-01-14T21:31:19.115Z,59.31
2024-01-14T21:33:46.913Z,59.26
2024-01-14T21:36:15.145Z,59.12
2024-01-14T21:38:42.754Z,59.08
2024-01-14T21:41:10.715Z,59.06
2024-01-14T21:43:38.335Z,59.12
2024-01-14T21:46:07.445Z,59.13
2024-01-14T21:48:35.389Z,59.24
2024-01-14T21:51:03.493Z,59.31
2024-01-14T21:53:31.334Z,59.38
2024-01-14T21:55:58.848Z,59.61
2024-01-14T21:58:26.525Z,59.56
2024-01-14T22:00:54.335Z,59.63
2024-01-14T22:05:53.712Z,61.12
2024-01-14T22:08:21.604Z,60.71
2024-01-14T22:10:49.123Z,60.82
2024-01-14T22:13:16.820Z,60.96
2024-01-14T22:15:45.045Z,61.12
2024-01-14T22:18:12.910Z,61.10
2024-01-14T22:20:41.407Z,60.89
2024-01-14T22:23:09.370Z,60.75
2024-01-14T22:25:36.934Z,60.74
2024-01-14T22:28:05.008Z,60.65
2024-01-14T22:30:32.689Z,60.59
2024-01-14T22:33:00.322Z,60.50
2024-01-14T22:35:30.591Z,60.35
2024-01-14T22:37:58.120Z,60.39
2024-01-14T22:40:25.617Z,60.37
2024-01-14T22:42:53.212Z,60.35
2024-01-14T22:45:21.065Z,60.23
2024-01-14T22:47:48.785Z,59.99
2024-01-14T22:50:16.531Z,59.69
2024-01-14T22:52:44.092Z,59.60
2024-01-14T22:55:11.548Z,59.48
2024-01-14T22:57:39.170Z,59.45
2024-01-14T23:00:09.044Z,59.42
2024-01-14T23:02:36.879Z,59.37
2024-01-14T23:05:05.164Z,59.30
2024-01-14T23:07:32.840Z,59.36
2024-01-14T23:10:00.388Z,59.46
2024-01-14T23:12:28.246Z,59.39
2024-01-14T23:14:55.922Z,59.12
2024-01-14T23:17:23.470Z,58.89
2024-01-14T23:19:52.006Z,58.76
2024-01-14T23:22:19.523Z,58.71
2024-01-14T23:24:47.135Z,58.62
2024-01-14T23:27:14.796Z,58.71
2024-01-14T23:29:42.713Z,58.70
2024-01-14T23:32:10.298Z,58.68
2024-01-14T23:34:38.223Z,58.62
2024-01-14T23:37:05.806Z,58.71
2024-01-14T23:39:34.027Z,58.53
2024-01-14T23:42:01.599Z,58.36
2024-01-14T23:44:29.398Z,58.08
2024-01-14T23:46:56.967Z,57.90
2024-01-14T23:49:24.581Z,57.88
2024-01-14T23:51:52.293Z,57.73
2024-01-14T23:54:21.008Z,57.65
2024-01-14T23:56:48.635Z,57.65
2024-01-14T23:59:16.195Z,57.67
